Greenwich, Kansas
Current Conditions -  °F | °C
As of 10:54 AM on Tuesday 21 Oct 2014 (Local Time) from KAAO Reporting Station
Clear Clear  
Wind Chill: 70°   Ceiling: Unl
Heat Index: 70°   Visibility: 10mi
Dew Point: 55°   Wind: 12mph
Humidity: 59%   Direction: 150°SSE
Pressure: 30.11"   Gusts: NA
Location:  37.78°N, 97.2°W
Report Text: KAAO 211554Z AUTO 15010KT 10SM CLR 21/13 A3011 RMK AO2 SLP190 T02110128
Loading
Personal Weather Stations






























Interactive Weather Map
Tropical Storm Tracking
New forecast layout! Learn more

10-Day Weather Forecast

Advertisements
Track Severe Weather on mobile